Animas, New Mexico
Current Conditions -  °F | °C
As of 10:55 PM on Thursday 27 Nov 2014 (Local Time) from KLSB Reporting Station
Clear Clear  
Wind Chill:   Ceiling: Unl
Heat Index:   Visibility: 10mi
Dew Point: -7°   Wind: 3mph
Humidity: 48%   Direction: 130°SE
Pressure: 30.3"   Gusts: NA
Location:  31.95°N, 108.81°W
Report Text: KLSB 280555Z AUTO 13003KT 10SM CLR 03/M07 A3030 RMK AO2
Loading
Personal Weather Stations






























Interactive Weather Map New forecast layout! Learn more

10-Day Weather Forecast

Advertisements
Track Severe Weather on mobile